Garelochhead, United Kingdom
Current Conditions -  °F | °C
As of 5:20 AM on Friday 31 Oct 2014 (Local Time) from EGPF Reporting Station
Overcast Overcast  
Wind Chill: 59°   Ceiling: 1200
Heat Index: 59°   Visibility: 6mi
Dew Point: 57°   Wind: 10mph
Humidity: 94%   Direction: 180°S
Pressure: 29.77"   Gusts: NA
Location:  56.08°N, 4.83°W
Report Text: EGPF 310520Z AUTO 18009KT 9999 OVC012 15/14 Q1008
Loading
Personal Weather Stations






























Interactive Weather Map
Tropical Storm Tracking
New forecast layout! Learn more

10-Day Weather Forecast

Advertisements
Track Severe Weather on mobile